EFMA/MHQ METAR and TAF weather

Enter ICAO airport designator
Station Type Date Time Source
EFMA METAR 2020/06/03 21:50 UTC NOAA

EFMA 032150Z AUTO 01004KT CAVOK 05/03 Q1010


Station Type Date Time Source
EFMA Decoded METAR 2020/06/03 21:50 UTC NOAA

Mariehamn / Aland Island, Finland (EFMA) 60-07N 019-54E
Jun 03, 2020 - 05:50 PM EDT / 2020.06.03 2150 UTC
Wind: from the N (010 degrees) at 5 MPH (4 KT):0
Visibility: greater than 7 mile(s):0
Temperature: 41 F (5 C)
Dew Point: 37 F (3 C)
Relative Humidity: 86%
Pressure (altimeter): 29.83 in. Hg (1010 hPa)
ob: EFMA 032150Z AUTO 01004KT CAVOK 05/03 Q1010
cycle: 22

Station Type Date Time Source
EFMA TAF 2014/05/01 21:18 UTC NOAA

TAF TAF EFMA 302037Z 3021/0106 08008KT CAVOK
TEMPO 3023/0101 02010KT 6000 RASN
BECMG 0101/0103 01012KT 4000 RASN BKN010 OVC025

Example: see airport list